Time;durP1;ratioP1;P1;durP2;ratioP2;P2;SDS_P1;SDS_P2;PMS_P1;PMS_P2;Temp;Humidity;BMP_temperature;BMP_pressure;BME280_temperature;BME280_humidity;BME280_pressure;Samples;Min_cycle;Max_cycle;Signal;HPM_P1;HPM_P2
2022/09/11 08:45:43;;;;;;;10.10;6.20;;;;;;;16.42;76.18;98733.13;103439;1303;545105;-87
2022/09/11 08:48:30;;;;;;;10.60;6.30;;;;;;;16.64;75.74;98732.66;105469;1286;25321;-81
2022/09/11 08:51:05;;;;;;;9.40;6.50;;;;;;;16.70;75.42;98733.84;105427;1287;24381;-82
2022/09/11 08:53:35;;;;;;;12.10;6.30;;;;;;;16.84;75.73;98732.67;105342;1286;22569;-85
2022/09/11 08:56:21;;;;;;;10.20;5.70;;;;;;;17.04;75.74;98731.86;106076;1277;22700;-88
2022/09/11 08:59:39;;;;;;;9.90;6.00;;;;;;;17.00;75.13;98731.29;104787;1274;1593155;-83
2022/09/11 09:02:45;;;;;;;9.80;6.40;;;;;;;16.91;75.43;98732.20;105778;1280;25206;-81
2022/09/11 09:05:46;;;;;;;10.40;6.40;;;;;;;16.85;75.23;98737.77;105824;1280;22557;-81
2022/09/11 09:08:38;;;;;;;10.60;6.10;;;;;;;16.87;75.77;98744.89;105753;1280;22577;-84
2022/09/11 09:12:06;;;;;;;10.80;5.80;;;;;;;16.89;75.56;98749.02;105745;1281;26625;-80
2022/09/11 09:15:10;;;;;;;12.00;6.90;;;;;;;16.85;75.45;98750.33;105106;1287;22730;-83
2022/09/11 09:18:27;;;;;;;10.10;6.20;;;;;;;16.79;75.47;98754.00;104832;1288;21843;-81
2022/09/11 09:21:42;;;;;;;10.50;6.30;;;;;;;16.69;75.53;98753.58;104266;1294;22560;-85
2022/09/11 09:24:21;;;;;;;10.90;6.80;;;;;;;16.57;75.34;98755.18;104330;1293;22642;-81
2022/09/11 09:27:10;;;;;;;10.40;6.20;;;;;;;16.48;75.60;98760.20;104277;1294;22564;-81
2022/09/11 09:30:04;;;;;;;12.00;6.70;;;;;;;16.58;75.92;98759.67;104180;1295;22562;-86
2022/09/11 09:36:48;;;;;;;9.40;5.50;;;;;;;16.99;75.50;98758.70;104206;1294;22642;-85
2022/09/11 09:39:21;;;;;;;9.80;6.20;;;;;;;17.12;75.28;98759.22;104341;1294;22772;-86
2022/09/11 09:43:15;;;;;;;;;;;;;;;;;;;;;
2022/09/11 09:46:31;;;;;;;9.10;5.50;;;;;;;17.36;75.30;98759.36;104040;1294;25451;-82
2022/09/11 09:49:51;;;;;;;9.20;5.20;;;;;;;17.51;74.86;98757.91;104040;1294;22969;-86
2022/09/11 09:52:24;;;;;;;11.20;5.40;;;;;;;17.89;75.39;98760.77;103958;1294;22563;-86
2022/09/11 09:55:25;;;;;;;9.90;5.40;;;;;;;18.19;74.94;98764.69;104399;1288;22556;-81
2022/09/11 09:58:01;;;;;;;8.90;5.50;;;;;;;18.12;74.99;98764.13;104985;1288;22554;-83
2022/09/11 10:00:44;;;;;;;11.90;5.20;;;;;;;17.98;74.89;98764.33;104895;1289;23098;-82
2022/09/11 10:03:33;;;;;;;7.50;4.50;;;;;;;17.90;75.09;98766.01;104933;1288;25225;-80
2022/09/11 10:06:06;;;;;;;9.60;4.70;;;;;;;17.71;74.38;98771.85;104918;1287;25544;-80
2022/09/11 10:08:46;;;;;;;7.90;4.20;;;;;;;17.66;74.98;98771.82;104903;1288;22578;-81
2022/09/11 10:11:32;;;;;;;8.70;4.90;;;;;;;17.76;75.19;98775.46;105073;1287;25259;-83
2022/09/11 10:14:20;;;;;;;7.40;4.70;;;;;;;17.94;75.52;98779.78;105050;1286;24238;-85
2022/09/11 10:16:57;;;;;;;9.50;4.40;;;;;;;18.13;75.09;98778.80;105695;1282;24358;-82
2022/09/11 10:19:55;;;;;;;;;;;;;;;;;;;;;
2022/09/11 10:23:34;;;;;;;7.60;4.10;;;;;;;18.04;74.32;98779.91;105993;1274;25775;-84
2022/09/11 10:26:14;;;;;;;8.20;4.10;;;;;;;17.71;74.11;98784.48;106022;1274;25478;-81
2022/09/11 10:29:23;;;;;;;9.40;4.20;;;;;;;17.37;74.36;98787.90;105819;1274;25298;-80
2022/09/11 10:32:41;;;;;;;7.50;4.40;;;;;;;17.28;74.99;98789.92;106034;1274;25417;-80
2022/09/11 10:35:49;;;;;;;10.20;3.90;;;;;;;17.50;75.04;98791.41;106036;1274;22698;-81
2022/09/11 10:38:29;;;;;;;7.30;4.20;;;;;;;17.83;74.94;98792.30;106091;1274;22698;-83
2022/09/11 10:41:36;;;;;;;7.10;4.20;;;;;;;18.11;74.75;98785.44;106054;1275;23392;-82
2022/09/11 10:44:27;;;;;;;9.00;4.10;;;;;;;18.22;74.21;98778.74;106374;1271;25341;-82
2022/09/11 10:47:28;;;;;;;6.80;3.70;;;;;;;18.36;74.24;98781.30;106267;1271;24299;-85
2022/09/11 10:50:42;;;;;;;6.00;2.80;;;;;;;18.70;74.24;98779.16;105893;1279;25224;-82
2022/09/11 10:53:33;;;;;;;6.90;3.70;;;;;;;19.04;73.63;98779.42;104961;1288;22540;-84
2022/09/11 10:56:14;;;;;;;7.40;3.30;;;;;;;19.29;73.58;98778.77;104932;1287;22538;-82
2022/09/11 10:59:14;;;;;;;7.40;2.70;;;;;;;19.44;73.37;98782.44;105041;1287;25251;-83
2022/09/11 11:02:18;;;;;;;5.90;3.00;;;;;;;19.49;73.17;98779.97;104905;1288;23502;-84
2022/09/11 11:05:02;;;;;;;6.50;2.40;;;;;;;19.53;73.22;98783.06;105007;1287;25463;-81
2022/09/11 11:07:36;;;;;;;5.80;2.50;;;;;;;19.41;73.01;98784.83;104805;1287;23196;-83
2022/09/11 11:10:45;;;;;;;6.50;2.50;;;;;;;19.20;72.70;98786.65;105015;1287;22595;-84
2022/09/11 11:14:01;;;;;;;6.80;2.90;;;;;;;18.80;72.66;98787.69;104801;1287;24300;-83
2022/09/11 11:16:58;;;;;;;5.60;2.40;;;;;;;18.49;72.82;98793.17;105089;1287;25347;-83
2022/09/11 11:20:00;;;;;;;7.50;2.90;;;;;;;18.20;72.85;98797.09;104969;1288;24815;-83
2022/09/11 11:22:57;;;;;;;7.30;3.50;;;;;;;17.89;73.36;98804.21;105043;1287;22752;-85
2022/09/11 11:25:52;;;;;;;6.80;3.40;;;;;;;17.81;73.42;98803.85;104890;1287;23077;-85
2022/09/11 11:28:42;;;;;;;;;;;;;;;;;;;;;
2022/09/11 11:32:10;;;;;;;7.60;3.50;;;;;;;17.69;73.59;98806.84;106459;1273;25306;-82
2022/09/11 11:35:30;;;;;;;6.60;3.10;;;;;;;17.83;73.73;98812.23;106345;1274;22714;-80
2022/09/11 11:38:30;;;;;;;7.30;3.40;;;;;;;17.88;73.32;98814.61;106414;1274;22541;-84
2022/09/11 11:42:12;;;;;;;;;;;;;;;;;;;;;
2022/09/11 11:45:08;;;;;;;5.60;2.90;;;;;;;17.68;72.92;98817.20;105761;1278;23120;-83
2022/09/11 11:47:59;;;;;;;7.30;3.40;;;;;;;17.78;73.50;98818.35;105892;1277;25238;-82
2022/09/11 11:50:56;;;;;;;8.50;3.80;;;;;;;18.08;73.47;98817.24;105696;1280;26648;-83
2022/09/11 11:54:14;;;;;;;;;;;;;;;;;;;;;
2022/09/11 11:58:11;;;;;;;8.70;3.90;;;;;;;18.71;72.71;98820.85;105888;1277;25322;-81
2022/09/11 12:01:19;;;;;;;;;;;;;;;;;;;;;
2022/09/11 12:04:03;;;;;;;8.90;5.30;;;;;;;19.26;71.89;98818.29;105753;1277;22701;-87
2022/09/11 12:07:14;;;;;;;;;;;;;;;;;;;;;
2022/09/11 12:10:27;;;;;;;10.20;5.80;;;;;;;19.33;71.98;98829.27;105738;1279;25681;-82
2022/09/11 12:14:26;;;;;;;9.70;5.90;;;;;;;18.85;71.41;98833.61;105794;1280;22566;-83
2022/09/11 12:16:54;;;;;;;9.90;6.20;;;;;;;18.71;72.31;98830.02;105775;1278;26546;-82
2022/09/11 12:20:00;;;;;;;;;;;;;;;;;;;;;
2022/09/11 12:23:17;;;;;;;9.60;4.90;;;;;;;19.03;72.34;98831.48;105858;1273;24456;-81
2022/09/11 12:26:11;;;;;;;8.20;4.90;;;;;;;19.19;72.37;98835.48;105632;1279;25540;-80
2022/09/11 12:29:19;;;;;;;8.80;4.10;;;;;;;19.07;72.19;98833.72;105338;1279;22544;-80
2022/09/11 12:33:00;;;;;;;8.90;4.80;;;;;;;18.80;71.61;98835.64;105550;1279;24267;-80
2022/09/11 12:36:28;;;;;;;7.40;4.00;;;;;;;18.36;71.87;98846.32;105639;1279;25434;-82
2022/09/11 12:39:15;;;;;;;9.00;4.40;;;;;;;18.20;72.25;98845.94;105493;1280;22571;-80
2022/09/11 12:42:12;;;;;;;8.40;4.40;;;;;;;18.15;72.33;98842.64;105627;1281;25537;-82
2022/09/11 12:45:22;;;;;;;8.50;4.80;;;;;;;17.91;72.10;98846.84;105597;1281;22587;-81
2022/09/11 12:48:39;;;;;;;11.00;4.80;;;;;;;17.68;72.31;98843.19;105606;1281;25427;-82
2022/09/11 12:52:23;;;;;;;;;;;;;;;;;;;;;
2022/09/11 12:54:53;;;;;;;9.30;5.00;;;;;;;18.06;73.04;98846.70;105615;1281;22782;-81
2022/09/11 13:01:27;;;;;;;9.40;5.30;;;;;;;17.90;72.54;98855.20;105245;1281;22691;-81
2022/09/11 13:04:26;;;;;;;9.20;5.20;;;;;;;17.84;72.68;98857.00;105797;1275;22562;-81
2022/09/11 13:07:06;;;;;;;10.40;6.20;;;;;;;17.74;72.36;98854.22;105826;1276;22602;-83
2022/09/11 13:10:18;;;;;;;;;;;;;;;;;;;;;
2022/09/11 13:12:56;;;;;;;14.50;8.40;;;;;;;17.65;72.54;98863.27;105971;1275;22557;-86
2022/09/11 13:15:59;;;;;;;14.80;8.60;;;;;;;17.65;72.66;98864.60;105995;1274;25345;-82
2022/09/11 13:19:05;;;;;;;;;;;;;;;;;;;;;
2022/09/11 13:21:50;;;;;;;;;;;;;;;;;;;;;
2022/09/11 13:25:02;;;;;;;17.00;10.30;;;;;;;17.57;72.59;98863.85;105742;1279;22569;-80
2022/09/11 13:28:11;;;;;;;16.40;10.50;;;;;;;17.50;72.50;98867.55;105725;1277;22636;-80
2022/09/11 13:31:08;;;;;;;16.00;9.70;;;;;;;17.32;72.44;98870.50;105534;1277;25303;-81
2022/09/11 13:34:01;;;;;;;16.40;10.20;;;;;;;17.24;72.80;98870.77;105668;1277;25329;-82
2022/09/11 13:36:45;;;;;;;18.40;10.10;;;;;;;17.25;72.95;98870.06;105671;1279;22576;-80
2022/09/11 13:39:20;;;;;;;18.50;11.80;;;;;;;17.18;72.72;98876.73;105716;1277;22558;-79
2022/09/11 13:42:01;;;;;;;21.00;12.10;;;;;;;17.06;72.91;98878.90;105870;1277;25461;-82
2022/09/11 13:45:06;;;;;;;20.70;12.80;;;;;;;16.89;73.01;98878.42;105751;1277;25385;-77
2022/09/11 13:47:46;;;;;;;19.90;11.70;;;;;;;16.71;72.94;98874.56;105654;1278;25386;-81
2022/09/11 13:50:22;;;;;;;19.50;11.70;;;;;;;16.55;72.98;98872.53;105790;1277;23527;-83
2022/09/11 13:52:56;;;;;;;18.40;11.00;;;;;;;16.49;73.17;98867.13;105716;1278;23991;-81
2022/09/11 13:55:29;;;;;;;20.10;11.60;;;;;;;16.54;73.23;98866.66;105689;1277;22572;-82
2022/09/11 13:58:02;;;;;;;16.90;9.70;;;;;;;16.62;73.09;98867.73;105705;1274;25356;-82
2022/09/11 14:01:06;;;;;;;15.00;8.50;;;;;;;16.66;73.04;98866.20;106111;1274;22537;-83
2022/09/11 14:03:45;;;;;;;17.20;9.20;;;;;;;16.71;73.02;98871.44;106262;1274;22555;-82
2022/09/11 14:06:45;;;;;;;17.80;9.60;;;;;;;16.83;73.19;98866.12;106203;1274;22553;-82
2022/09/11 14:09:29;;;;;;;14.60;8.00;;;;;;;16.94;73.13;98866.40;106064;1273;22551;-83
2022/09/11 14:12:19;;;;;;;16.60;9.60;;;;;;;17.05;72.85;98870.37;106239;1274;22806;-83
2022/09/11 14:15:10;;;;;;;17.40;9.30;;;;;;;17.09;72.87;98872.81;106129;1274;22538;-83
2022/09/11 14:17:41;;;;;;;18.40;9.00;;;;;;;17.16;73.14;98864.75;106140;1274;22721;-83
2022/09/11 14:20:35;;;;;;;16.40;8.40;;;;;;;17.36;73.20;98864.11;106248;1274;22663;-81
2022/09/11 14:23:38;;;;;;;15.00;8.80;;;;;;;17.38;72.78;98866.97;106198;1274;24259;-84
2022/09/11 14:26:21;;;;;;;16.50;8.50;;;;;;;17.36;72.65;98865.98;106172;1274;22626;-81
2022/09/11 14:29:35;;;;;;;15.40;8.00;;;;;;;17.25;72.57;98864.89;106183;1274;25244;-81
2022/09/11 14:32:37;;;;;;;12.70;6.80;;;;;;;17.28;72.95;98863.26;106122;1274;24343;-84
2022/09/11 14:35:42;;;;;;;12.30;6.60;;;;;;;17.35;72.52;98863.70;106113;1274;25446;-81
2022/09/11 14:38:20;;;;;;;13.80;7.00;;;;;;;17.42;72.83;98862.38;106208;1274;25213;-85
2022/09/11 14:41:14;;;;;;;12.60;6.60;;;;;;;17.47;72.66;98865.52;106449;1272;23902;-83
2022/09/11 14:43:55;;;;;;;12.00;6.00;;;;;;;17.47;72.57;98863.32;106186;1271;22553;-81
2022/09/11 14:46:31;;;;;;;12.50;6.50;;;;;;;17.44;72.42;98865.77;106200;1271;22548;-84
2022/09/11 14:49:34;;;;;;;;;;;;;;;;;;;;;
2022/09/11 14:52:12;;;;;;;12.00;5.70;;;;;;;17.39;72.36;98863.45;106103;1271;25245;-84
2022/09/11 14:54:40;;;;;;;13.60;6.50;;;;;;;17.41;72.56;98867.36;106116;1271;22686;-84
2022/09/11 14:57:23;;;;;;;10.00;5.30;;;;;;;17.45;72.33;98866.08;106204;1271;22698;-82
2022/09/11 14:59:57;;;;;;;11.70;6.00;;;;;;;17.51;72.38;98868.16;106218;1271;22559;-82
2022/09/11 15:02:46;;;;;;;11.80;6.40;;;;;;;17.62;72.53;98865.54;106221;1271;23407;-83
2022/09/11 15:05:21;;;;;;;12.60;6.70;;;;;;;17.71;72.32;98868.38;106328;1271;22551;-83
2022/09/11 15:07:52;;;;;;;9.60;5.30;;;;;;;17.83;72.56;98870.01;106265;1272;25568;-83
2022/09/11 15:10:26;;;;;;;11.00;5.40;;;;;;;17.84;72.04;98871.36;106233;1271;24434;-83
2022/09/11 15:12:59;;;;;;;12.00;5.70;;;;;;;17.74;72.14;98870.22;106192;1274;25281;-82
2022/09/11 15:15:37;;;;;;;10.60;6.10;;;;;;;17.62;72.22;98870.46;106167;1271;22543;-82
2022/09/11 15:18:22;;;;;;;11.20;6.00;;;;;;;17.53;72.60;98870.95;106309;1271;25195;-82
2022/09/11 15:21:02;;;;;;;13.10;6.40;;;;;;;17.48;72.48;98871.15;106373;1271;24269;-85
2022/09/11 15:23:46;;;;;;;12.30;6.00;;;;;;;17.34;72.41;98875.48;106192;1271;22570;-83
2022/09/11 15:26:32;;;;;;;11.70;6.10;;;;;;;17.22;72.29;98880.88;106441;1271;23265;-83
2022/09/11 15:29:31;;;;;;;11.80;5.90;;;;;;;17.06;72.31;98875.46;106410;1271;25243;-84
2022/09/11 15:32:07;;;;;;;12.90;6.50;;;;;;;17.00;72.45;98882.02;106451;1271;22638;-85
2022/09/11 15:35:27;;;;;;;;;;;;;;;;;;;;;
2022/09/11 15:39:06;;;;;;;12.40;5.80;;;;;;;16.87;72.52;98882.84;106518;1271;22656;-83
2022/09/11 15:41:32;;;;;;;;;;;;;;;;;;;;;
2022/09/11 15:45:03;;;;;;;12.70;6.80;;;;;;;16.73;72.41;98882.59;106338;1271;24202;-82
2022/09/11 15:48:49;;;;;;;11.10;5.40;;;;;;;16.65;72.56;98882.50;106531;1271;22705;-87
2022/09/11 15:51:29;;;;;;;9.60;5.30;;;;;;;16.59;72.47;98887.00;106515;1271;22833;-82
2022/09/11 15:54:32;;;;;;;11.30;5.70;;;;;;;16.54;72.63;98888.28;106345;1271;22541;-85
2022/09/11 15:57:36;;;;;;;10.20;5.00;;;;;;;16.50;72.61;98892.77;106527;1271;24393;-85
2022/09/11 16:00:39;;;;;;;;;;;;;;;;;;;;;
2022/09/11 16:04:25;;;;;;;10.70;5.50;;;;;;;16.45;72.70;98898.23;106535;1271;24320;-84
2022/09/11 16:07:07;;;;;;;11.10;5.60;;;;;;;16.45;72.61;98898.67;106476;1271;25680;-82
2022/09/11 16:10:21;;;;;;;;;;;;;;;;;;;;;
2022/09/11 16:13:17;;;;;;;11.50;5.70;;;;;;;16.43;72.67;98901.21;106345;1274;25226;-83
2022/09/11 16:16:44;;;;;;;11.70;5.40;;;;;;;16.38;72.65;98901.15;106191;1274;22693;-83
2022/09/11 16:19:47;;;;;;;;;;;;;;;;;;;;;
2022/09/11 16:22:37;;;;;;;9.30;5.20;;;;;;;16.37;72.69;98899.57;106467;1271;23975;-83
2022/09/11 16:25:47;;;;;;;;;;;;;;;;;;;;;
2022/09/11 16:29:18;;;;;;;;;;;;;;;;;;;;;
2022/09/11 16:32:40;;;;;;;11.20;5.00;;;;;;;16.41;72.56;98889.14;106375;1271;25601;-85
2022/09/11 16:36:37;;;;;;;;;;;;;;;;;;;;;
2022/09/11 16:40:04;;;;;;;;;;;;;;;;;;;;;
2022/09/11 16:43:18;;;;;;;;;;;;;;;;;;;;;
2022/09/11 16:46:57;;;;;;;;;;;;;;;;;;;;;
2022/09/11 16:51:03;;;;;;;9.20;4.50;;;;;;;16.33;72.72;98896.10;105397;1282;24254;-82
2022/09/11 16:54:42;;;;;;;9.70;5.00;;;;;;;16.29;72.81;98895.02;105616;1281;25250;-84
2022/09/11 16:58:02;;;;;;;;;;;;;;;;;;;;;
2022/09/11 17:01:26;;;;;;;10.00;4.70;;;;;;;16.24;72.83;98899.02;104854;1288;24233;-84
2022/09/11 17:04:21;;;;;;;9.90;5.40;;;;;;;16.23;72.88;98904.07;104882;1288;25305;-83
2022/09/11 17:07:14;;;;;;;12.50;5.60;;;;;;;16.20;72.85;98907.54;105016;1287;24413;-84
2022/09/11 17:10:01;;;;;;;10.10;5.60;;;;;;;16.17;72.81;98908.27;104962;1288;25331;-81
2022/09/11 17:13:06;;;;;;;11.20;5.60;;;;;;;16.12;72.82;98908.95;105149;1282;24213;-87
2022/09/11 17:16:42;;;;;;;;;;;;;;;;;;;;;
2022/09/11 17:19:16;;;;;;;11.70;5.90;;;;;;;16.09;72.99;98907.98;105720;1281;24375;-82
2022/09/11 17:22:05;;;;;;;13.80;5.60;;;;;;;16.09;73.20;98912.02;105717;1281;25553;-83
2022/09/11 17:24:38;;;;;;;11.50;6.50;;;;;;;16.11;73.02;98913.73;105790;1281;25346;-82
2022/09/11 17:27:25;;;;;;;11.40;6.20;;;;;;;16.08;73.00;98916.37;105725;1280;25204;-82
2022/09/11 17:30:14;;;;;;;12.40;6.40;;;;;;;16.07;73.16;98920.34;105732;1279;22704;-81
2022/09/11 17:33:12;;;;;;;11.10;5.60;;;;;;;16.05;73.17;98920.95;105779;1280;24258;-84
2022/09/11 17:36:01;;;;;;;12.30;7.30;;;;;;;15.98;73.04;98922.12;105799;1279;25279;-83
2022/09/11 17:39:02;;;;;;;13.40;6.60;;;;;;;15.93;73.28;98921.67;106055;1273;24231;-86
2022/09/11 17:41:44;;;;;;;13.00;6.70;;;;;;;15.89;73.28;98920.08;106169;1273;25437;-84
2022/09/11 17:44:17;;;;;;;13.30;7.30;;;;;;;15.88;73.39;98921.98;106368;1273;22525;-84
2022/09/11 17:47:11;;;;;;;13.10;7.60;;;;;;;15.89;73.44;98921.01;106167;1273;24202;-84
2022/09/11 17:49:53;;;;;;;16.30;8.00;;;;;;;15.90;73.42;98923.96;106117;1273;25339;-83
2022/09/11 17:52:39;;;;;;;12.60;7.30;;;;;;;15.90;73.45;98926.30;106179;1273;22570;-84
2022/09/11 17:55:28;;;;;;;13.10;7.30;;;;;;;15.88;73.49;98924.84;105984;1277;22553;-84
2022/09/11 17:58:28;;;;;;;12.70;6.70;;;;;;;15.90;73.58;98924.30;106103;1274;22554;-84
2022/09/11 18:01:02;;;;;;;14.70;8.00;;;;;;;15.92;73.63;98924.27;106438;1273;25453;-83
2022/09/11 18:03:43;;;;;;;15.40;8.00;;;;;;;15.95;73.65;98925.23;106265;1273;26572;-85
2022/09/11 18:06:53;;;;;;;14.10;8.20;;;;;;;15.94;73.56;98923.06;106210;1271;25327;-81
2022/09/11 18:09:37;;;;;;;14.80;8.00;;;;;;;15.95;73.65;98924.55;106513;1271;25195;-83
2022/09/11 18:12:24;;;;;;;13.60;7.80;;;;;;;15.92;73.55;98928.23;106389;1274;22768;-82
2022/09/11 18:15:04;;;;;;;15.20;7.50;;;;;;;15.92;73.71;98928.10;106267;1274;22511;-83
2022/09/11 18:17:48;;;;;;;15.10;8.30;;;;;;;15.93;73.79;98928.65;106323;1274;25205;-83
2022/09/11 18:20:24;;;;;;;14.40;8.60;;;;;;;15.94;73.79;98925.39;106071;1274;22627;-85
2022/09/11 18:22:55;;;;;;;13.50;7.30;;;;;;;15.92;73.70;98928.04;106010;1274;22501;-85
2022/09/11 18:25:32;;;;;;;14.90;7.70;;;;;;;15.89;73.73;98929.42;106339;1273;24415;-85
2022/09/11 18:28:18;;;;;;;14.40;7.90;;;;;;;15.85;73.74;98933.42;106372;1271;22545;-82
2022/09/11 18:31:16;;;;;;;13.50;7.40;;;;;;;15.85;73.77;98932.35;106331;1271;22557;-82
2022/09/11 18:34:06;;;;;;;15.70;8.20;;;;;;;15.86;73.91;98933.56;106215;1274;23940;-84
2022/09/11 18:36:45;;;;;;;11.70;6.70;;;;;;;15.86;73.92;98938.19;106148;1274;22624;-84
2022/09/11 18:39:30;;;;;;;15.10;8.60;;;;;;;15.83;73.80;98939.34;106365;1274;22793;-83
2022/09/11 18:42:06;;;;;;;15.20;8.60;;;;;;;15.81;73.90;98941.51;106390;1274;22535;-84
2022/09/11 18:44:47;;;;;;;15.20;7.70;;;;;;;15.81;73.88;98941.88;106172;1274;22553;-83
2022/09/11 18:47:14;;;;;;;11.00;6.60;;;;;;;15.81;73.94;98944.77;106412;1271;25387;-82
2022/09/11 18:49:42;;;;;;;13.10;7.30;;;;;;;15.82;74.04;98942.72;106456;1272;25466;-82
2022/09/11 18:52:29;;;;;;;13.90;7.00;;;;;;;15.82;74.01;98943.43;106544;1271;24377;-83
2022/09/11 18:55:18;;;;;;;13.10;7.10;;;;;;;15.84;74.00;98938.90;106405;1271;26246;-84
2022/09/11 18:58:02;;;;;;;13.70;7.50;;;;;;;15.84;74.02;98940.69;106264;1272;24214;-85
2022/09/11 19:00:49;;;;;;;15.30;7.70;;;;;;;15.83;74.04;98942.02;106348;1272;25226;-83
2022/09/11 19:03:45;;;;;;;;;;;;;;;;;;;;;
2022/09/11 19:06:42;;;;;;;;;;;;;;;;;;;;;
2022/09/11 19:09:47;;;;;;;13.40;6.60;;;;;;;15.75;74.05;98943.77;106412;1271;22633;-84
2022/09/11 19:12:53;;;;;;;12.70;6.10;;;;;;;15.74;74.05;98953.32;106501;1271;25227;-86
2022/09/11 19:15:39;;;;;;;12.80;6.80;;;;;;;15.74;74.12;98950.26;106413;1271;22541;-89
2022/09/11 19:18:55;;;;;;;13.00;6.80;;;;;;;15.73;74.17;98951.69;106472;1271;25366;-84
2022/09/11 19:22:21;;;;;;;12.70;6.70;;;;;;;15.73;74.09;98953.14;106553;1271;24230;-86
2022/09/11 19:24:49;;;;;;;12.10;7.00;;;;;;;15.75;74.22;98949.80;106301;1271;25551;-84
2022/09/11 19:28:10;;;;;;;12.90;6.70;;;;;;;15.81;74.35;98954.15;106470;1271;22563;-85
2022/09/11 19:31:41;;;;;;;11.60;6.80;;;;;;;15.81;74.20;98957.16;105962;1279;22550;-87
2022/09/11 19:34:41;;;;;;;11.20;6.30;;;;;;;15.75;74.18;98962.90;105850;1280;25370;-84
2022/09/11 19:37:54;;;;;;;12.70;6.10;;;;;;;15.69;74.31;98965.86;105736;1280;24296;-85
2022/09/11 19:40:42;;;;;;;11.20;5.90;;;;;;;15.62;74.34;98973.85;105325;1284;22611;-84
2022/09/11 19:43:52;;;;;;;10.90;6.30;;;;;;;15.56;74.53;98971.17;105382;1284;24431;-85
2022/09/11 19:47:23;;;;;;;;;;;;;;;;;;;;;
2022/09/11 19:50:32;;;;;;;12.40;6.20;;;;;;;15.41;74.71;98976.18;105309;1284;24223;-85
2022/09/11 19:53:38;;;;;;;9.70;5.30;;;;;;;15.37;74.93;98979.61;105374;1285;24285;-84
2022/09/11 19:56:49;;;;;;;;;;;;;;;;;;;;;
2022/09/11 19:59:46;;;;;;;;;;;;;;;;;;;;;
2022/09/11 20:03:06;;;;;;;12.60;5.80;;;;;;;15.20;75.10;98989.92;105266;1284;23041;-86
2022/09/11 20:06:47;;;;;;;11.20;6.10;;;;;;;15.13;75.15;98983.27;105370;1285;25545;-84
2022/09/11 20:10:27;;;;;;;10.00;5.40;;;;;;;15.09;75.32;98987.91;105700;1282;22580;-88
2022/09/11 20:14:04;;;;;;;;;;;;;;;;;;;;;
2022/09/11 20:17:44;;;;;;;11.00;5.60;;;;;;;15.01;75.35;98996.57;105056;1282;22541;-85
2022/09/11 20:21:01;;;;;;;11.20;5.40;;;;;;;14.97;75.46;98996.54;105089;1287;22710;-83
2022/09/11 20:24:31;;;;;;;;;;;;;;;;;;;;;
2022/09/11 20:28:09;;;;;;;;;;;;;;;;;;;;;
2022/09/11 20:31:45;;;;;;;;;;;;;;;;;;;;;
2022/09/11 20:35:04;;;;;;;11.10;5.70;;;;;;;14.90;75.73;98999.20;103772;1300;24336;-85
2022/09/11 20:38:17;;;;;;;;;;;;;;;;;;;;;
2022/09/11 20:41:39;;;;;;;9.80;4.50;;;;;;;14.88;75.83;99002.74;103803;1300;22825;-85
2022/09/11 20:45:16;;;;;;;;;;;;;;;;;;;;;
2022/09/11 20:49:02;;;;;;;12.40;5.40;;;;;;;14.86;75.98;99000.75;103398;1305;23891;-82
2022/09/11 20:52:29;;;;;;;10.10;4.50;;;;;;;14.87;75.99;98999.56;103221;1305;24338;-85
2022/09/11 20:55:29;;;;;;;;;;;;;;;;;;;;;
2022/09/11 21:02:43;;;;;;;;;;;;;;;;;;;;;
2022/09/11 21:05:56;;;;;;;;;;;;;;;;;;;;;
2022/09/11 21:09:36;;;;;;;;;;;;;;;;;;;;;
2022/09/11 21:12:56;;;;;;;;;;;;;;;;;;;;;
2022/09/11 21:16:47;;;;;;;;;;;;;;;;;;;;;
2022/09/11 21:19:49;;;;;;;;;;;;;;;;;;;;;
2022/09/11 21:23:42;;;;;;;;;;;;;;;;;;;;;
2022/09/11 21:26:56;;;;;;;;;;;;;;;;;;;;;
2022/09/11 21:30:02;;;;;;;;;;;;;;;;;;;;;
2022/09/11 21:33:43;;;;;;;8.60;4.50;;;;;;;14.77;76.33;99010.04;105576;1281;24363;-83
2022/09/11 21:36:58;;;;;;;;;;;;;;;;;;;;;
2022/09/11 21:40:47;;;;;;;;;;;;;;;;;;;;;
2022/09/11 21:44:25;;;;;;;;;;;;;;;;;;;;;
2022/09/11 21:47:40;;;;;;;;;;;;;;;;;;;;;
2022/09/11 21:51:51;;;;;;;10.30;4.40;;;;;;;14.85;76.46;99009.85;104664;1290;22566;-85
2022/09/11 21:54:26;;;;;;;9.20;4.30;;;;;;;14.83;76.53;99011.63;104834;1290;25304;-84
2022/09/11 21:57:28;;;;;;;;;;;;;;;;;;;;;
2022/09/11 22:00:38;;;;;;;9.00;4.70;;;;;;;14.84;76.64;99009.70;104809;1290;25426;-86
2022/09/11 22:03:36;;;;;;;9.00;4.40;;;;;;;14.83;76.60;99005.02;105032;1281;22669;-86
2022/09/11 22:06:21;;;;;;;7.80;3.50;;;;;;;14.84;76.70;99006.48;105539;1281;25366;-84
2022/09/11 22:09:58;;;;;;;9.40;4.40;;;;;;;14.87;76.64;99006.95;105764;1281;24157;-84
2022/09/11 22:13:09;;;;;;;8.20;3.60;;;;;;;14.86;76.73;99006.11;105733;1281;25206;-85
2022/09/11 22:16:23;;;;;;;8.70;4.20;;;;;;;14.90;76.70;99009.95;105617;1281;22816;-84
2022/09/11 22:19:29;;;;;;;8.70;4.20;;;;;;;14.89;76.70;99010.19;105569;1281;22566;-86
2022/09/11 22:23:14;;;;;;;12.40;4.10;;;;;;;14.90;76.73;99009.01;105682;1281;22536;-84
2022/09/11 22:26:30;;;;;;;;;;;;;;;;;;;;;
2022/09/11 22:30:07;;;;;;;9.60;3.40;;;;;;;14.93;76.74;99006.66;106501;1271;24225;-86
2022/09/11 22:34:08;;;;;;;8.70;4.30;;;;;;;14.92;76.85;99009.44;106421;1271;25265;-84
2022/09/11 22:37:01;;;;;;;8.50;4.00;;;;;;;14.90;76.84;99007.06;105744;1280;22559;-84
2022/09/11 22:39:46;;;;;;;10.50;3.80;;;;;;;14.88;76.91;99008.65;105682;1283;22614;-83
2022/09/11 22:43:12;;;;;;;8.90;3.70;;;;;;;14.87;76.96;99005.48;105798;1280;24259;-88
2022/09/11 22:46:22;;;;;;;9.70;4.20;;;;;;;14.88;76.84;99010.95;105330;1284;22554;-90
2022/09/11 22:50:02;;;;;;;9.90;3.80;;;;;;;14.87;76.89;99009.75;105441;1283;25326;-83
2022/09/11 22:53:20;;;;;;;;;;;;;;;;;;;;;
2022/09/11 22:56:22;;;;;;;8.70;3.90;;;;;;;14.85;77.10;99007.13;105663;1283;25334;-88
2022/09/11 22:59:21;;;;;;;8.40;4.00;;;;;;;14.83;76.92;99005.72;105709;1283;22595;-90
2022/09/11 23:02:14;;;;;;;;;;;;;;;;;;;;;
2022/09/11 23:08:15;;;;;;;8.50;3.80;;;;;;;14.80;77.06;99003.60;105607;1283;22657;-85
2022/09/11 23:11:14;;;;;;;9.70;4.20;;;;;;;14.82;77.18;99007.24;105497;1284;25274;-84
2022/09/11 23:14:28;;;;;;;8.80;4.20;;;;;;;14.82;77.14;99009.34;105619;1280;25244;-84
2022/09/11 23:18:04;;;;;;;7.90;3.70;;;;;;;14.79;77.17;99009.10;105962;1278;22554;-84
2022/09/11 23:21:08;;;;;;;8.80;3.90;;;;;;;14.76;77.21;99006.50;105851;1278;22545;-83
2022/09/11 23:24:57;;;;;;;;;;;;;;;;;;;;;
2022/09/11 23:28:08;;;;;;;8.00;4.00;;;;;;;14.79;77.45;99008.76;106452;1271;26808;-85
2022/09/11 23:31:54;;;;;;;11.40;4.40;;;;;;;14.77;77.31;99008.56;106351;1271;25302;-83
2022/09/11 23:35:14;;;;;;;8.90;4.20;;;;;;;14.78;77.43;99007.10;106195;1274;26566;-88
2022/09/11 23:38:37;;;;;;;9.20;4.40;;;;;;;14.77;77.33;99007.36;106535;1271;22580;-87
2022/09/11 23:41:45;;;;;;;9.10;4.20;;;;;;;14.75;77.20;99003.88;106470;1271;22559;-85
2022/09/11 23:44:49;;;;;;;;;;;;;;;;;;;;;
2022/09/11 23:47:53;;;;;;;12.20;4.60;;;;;;;14.74;77.37;99005.77;106367;1271;22544;-84
2022/09/11 23:51:19;;;;;;;8.00;3.90;;;;;;;14.75;77.48;99007.83;106287;1271;22610;-83
2022/09/11 23:54:26;;;;;;;10.70;4.10;;;;;;;14.79;77.54;99008.59;106475;1271;24379;-85
2022/09/11 23:57:52;;;;;;;11.50;4.20;;;;;;;14.83;77.55;99007.36;106413;1271;24198;-85
